Time;durP1;ratioP1;P1;durP2;ratioP2;P2;SDS_P1;SDS_P2;PMS_P1;PMS_P2;Temp;Humidity;BMP_temperature;BMP_pressure;BME280_temperature;BME280_humidity;BME280_pressure;Samples;Min_cycle;Max_cycle;Signal;HPM_P1;HPM_P2
2021/07/11 00:01:57;;;;;;;2.83;2.53;;;;;;;22.84;100.00;97416.13;4988836;28;20313;-65
2021/07/11 00:04:24;;;;;;;3.33;2.80;;;;;;;22.84;100.00;97416.13;5004634;28;20242;-65
2021/07/11 00:06:50;;;;;;;3.17;2.97;;;;;;;22.74;100.00;97412.47;5000066;28;20252;-64
2021/07/11 00:09:17;;;;;;;2.80;2.60;;;;;;;22.84;100.00;97434.06;5005465;28;20309;-65
2021/07/11 00:11:44;;;;;;;3.23;2.90;;;;;;;22.84;100.00;97434.06;4986774;28;20244;-65
2021/07/11 00:14:10;;;;;;;3.00;2.80;;;;;;;22.63;100.00;97400.28;4986926;28;20459;-66
2021/07/11 00:16:37;;;;;;;3.20;2.90;;;;;;;22.84;100.00;97441.75;4970984;28;20239;-68
2021/07/11 00:19:04;;;;;;;2.60;2.40;;;;;;;22.58;100.00;97389.91;5003554;28;20209;-65
2021/07/11 00:21:30;;;;;;;2.97;2.77;;;;;;;21.79;100.00;97263.41;4986435;28;20210;-66
2021/07/11 00:23:57;;;;;;;2.90;2.70;;;;;;;22.85;100.00;97438.34;5000026;28;20262;-65
2021/07/11 00:26:23;;;;;;;3.87;2.60;;;;;;;22.83;100.00;97430.63;5006377;28;20260;-66
2021/07/11 00:28:51;;;;;;;2.90;2.60;;;;;;;22.80;100.00;97432.28;5002735;28;20675;-65
2021/07/11 00:31:17;;;;;;;3.10;2.90;;;;;;;21.59;100.00;97218.56;4986155;28;20246;-65
2021/07/11 00:33:44;;;;;;;3.10;2.80;;;;;;;22.45;100.00;97362.28;5002223;28;20274;-65
2021/07/11 00:36:10;;;;;;;2.87;2.67;;;;;;;22.00;100.00;97294.66;4979613;28;20263;-65
2021/07/11 00:38:37;;;;;;;2.90;2.70;;;;;;;22.61;100.00;97404.47;5004124;28;20242;-66
2021/07/11 00:41:04;;;;;;;2.70;2.50;;;;;;;22.74;100.00;97425.28;4989245;28;20237;-66
2021/07/11 00:43:30;;;;;;;2.90;2.70;;;;;;;22.80;100.00;97448.50;4985066;28;20280;-65
2021/07/11 00:45:57;;;;;;;2.90;2.70;;;;;;;22.45;100.00;97398.13;4985268;28;20225;-65
2021/07/11 00:48:24;;;;;;;2.73;2.53;;;;;;;22.44;100.00;97401.50;4984166;28;20253;-65
2021/07/11 00:50:51;;;;;;;3.10;2.80;;;;;;;22.78;100.00;97475.81;4985564;28;20706;-65
2021/07/11 00:53:17;;;;;;;2.90;2.70;;;;;;;22.67;100.00;97449.06;4983813;28;20675;-68
2021/07/11 00:55:44;;;;;;;2.80;2.60;;;;;;;22.74;100.00;97457.75;4983863;28;20202;-66
2021/07/11 00:58:10;;;;;;;2.80;2.60;;;;;;;22.62;100.00;97437.81;4998804;28;20227;-65
2021/07/11 01:00:37;;;;;;;2.93;2.60;;;;;;;22.78;100.00;97468.09;5002734;28;20207;-65
2021/07/11 01:03:04;;;;;;;2.93;2.63;;;;;;;22.78;100.00;97472.34;4971671;28;20222;-65
2021/07/11 01:05:31;;;;;;;5.10;2.83;;;;;;;22.77;100.00;97471.47;5000617;28;20236;-66
2021/07/11 01:08:05;;;;;;;3.03;2.50;;;;;;;22.77;100.00;97463.78;4987454;28;20261;-66
2021/07/11 01:10:51;;;;;;;2.53;2.33;;;;;;;22.77;100.00;97473.19;4981902;28;20206;-65
2021/07/11 01:13:19;;;;;;;3.43;3.13;;;;;;;22.45;100.00;97415.16;5002165;28;20249;-65
2021/07/11 01:15:47;;;;;;;2.50;2.30;;;;;;;22.66;100.00;97452.44;4986632;28;20575;-66
2021/07/11 01:18:14;;;;;;;2.90;2.70;;;;;;;22.67;100.00;97459.28;4982183;28;20278;-65
2021/07/11 01:20:46;;;;;;;3.07;2.87;;;;;;;22.77;100.00;97474.03;4968461;28;20232;-65
2021/07/11 01:23:26;;;;;;;2.93;2.63;;;;;;;22.32;100.00;97390.13;4973849;28;20222;-65
2021/07/11 01:25:52;;;;;;;4.87;2.70;;;;;;;22.59;100.00;97435.19;4970695;28;20277;-66
2021/07/11 01:28:20;;;;;;;3.33;2.63;;;;;;;22.75;100.00;97460.34;4960011;28;20586;-65
2021/07/11 01:30:52;;;;;;;3.20;2.70;;;;;;;22.27;100.00;97384.00;4981806;28;20210;-66
2021/07/11 01:33:20;;;;;;;2.70;2.50;;;;;;;22.37;100.00;97409.00;4985968;28;20276;-66
2021/07/11 01:35:46;;;;;;;2.63;2.43;;;;;;;22.76;100.00;97474.88;4973335;28;20225;-65
2021/07/11 01:38:13;;;;;;;2.63;2.43;;;;;;;22.26;100.00;97392.53;4964624;28;20281;-66
2021/07/11 01:40:41;;;;;;;2.93;2.63;;;;;;;22.62;100.00;97468.56;4986026;28;20199;-65
2021/07/11 01:43:07;;;;;;;2.73;2.40;;;;;;;22.39;100.00;97427.84;4989822;28;20250;-66
2021/07/11 01:45:34;;;;;;;2.90;2.70;;;;;;;22.44;100.00;97436.50;4989161;28;20290;-65
2021/07/11 01:48:01;;;;;;;2.73;2.53;;;;;;;22.56;100.00;97458.16;4985640;28;20313;-66
2021/07/11 01:50:27;;;;;;;2.57;2.37;;;;;;;22.76;100.00;97497.06;4984731;28;20238;-65
2021/07/11 01:52:54;;;;;;;2.90;2.60;;;;;;;21.95;100.00;97375.53;4991178;28;20262;-65
2021/07/11 01:55:21;;;;;;;2.30;2.10;;;;;;;22.75;100.00;97495.34;4989064;28;20230;-66
2021/07/11 01:57:49;;;;;;;2.90;2.60;;;;;;;22.50;100.00;97452.88;5004824;28;20191;-66
2021/07/11 02:00:16;;;;;;;2.80;2.60;;;;;;;22.75;100.00;97490.22;4974031;28;20225;-66
2021/07/11 02:02:44;;;;;;;2.70;2.50;;;;;;;22.08;100.00;97390.34;4988390;28;20599;-66
2021/07/11 02:05:11;;;;;;;2.63;2.30;;;;;;;22.63;100.00;97487.38;4987614;28;20210;-66
2021/07/11 02:07:38;;;;;;;3.03;2.73;;;;;;;22.74;100.00;97503.88;4988333;28;20655;-65
2021/07/11 02:10:09;;;;;;;2.60;2.40;;;;;;;22.73;100.00;97503.00;4975200;28;20664;-65
2021/07/11 02:12:41;;;;;;;2.50;2.30;;;;;;;22.75;100.00;97505.59;5009684;28;20253;-67
2021/07/11 02:15:08;;;;;;;2.27;2.10;;;;;;;22.21;100.00;97418.00;4954879;28;20237;-66
2021/07/11 02:17:47;;;;;;;2.67;2.47;;;;;;;22.74;100.00;97506.44;4986458;28;20735;-65
2021/07/11 02:20:13;;;;;;;2.50;2.30;;;;;;;21.78;100.00;97340.09;4991525;28;20289;-66
2021/07/11 02:22:44;;;;;;;2.70;2.50;;;;;;;22.75;100.00;97510.72;4988530;28;20778;-66
2021/07/11 02:25:13;;;;;;;2.90;2.60;;;;;;;22.68;100.00;97494.31;4990032;28;20688;-73
2021/07/11 02:27:42;;;;;;;2.50;2.30;;;;;;;22.55;100.00;97470.94;4971238;28;20202;-70
2021/07/11 02:30:13;;;;;;;2.83;2.60;;;;;;;21.90;100.00;97356.63;4971914;28;20290;-70
2021/07/11 02:32:44;;;;;;;2.63;2.43;;;;;;;22.75;100.00;97503.03;4989052;28;20222;-71
2021/07/11 02:35:12;;;;;;;2.43;2.23;;;;;;;22.75;100.00;97503.91;4994702;28;20246;-70
2021/07/11 02:37:49;;;;;;;2.63;2.43;;;;;;;22.76;100.00;97503.06;4968082;28;20679;-70
2021/07/11 02:40:16;;;;;;;2.40;2.20;;;;;;;22.71;100.00;97493.56;4977299;28;20256;-70
2021/07/11 02:42:43;;;;;;;2.20;2.10;;;;;;;22.21;100.00;97409.47;4975073;28;20257;-72
2021/07/11 02:45:13;;;;;;;2.60;2.40;;;;;;;22.61;100.00;97474.53;4985382;28;20641;-70
2021/07/11 02:47:43;;;;;;;2.60;2.40;;;;;;;22.73;100.00;97497.88;4972098;28;20202;-70
2021/07/11 02:50:11;;;;;;;3.07;2.10;;;;;;;22.78;100.00;97505.66;4982621;28;20291;-71
2021/07/11 02:52:40;;;;;;;3.10;2.80;;;;;;;22.48;100.00;97458.78;4983258;28;20598;-70
2021/07/11 02:55:07;;;;;;;2.40;2.20;;;;;;;22.78;100.00;97506.53;4987616;28;20253;-71
2021/07/11 02:57:35;;;;;;;2.43;2.23;;;;;;;22.35;100.00;97421.75;4987881;28;20199;-70
2021/07/11 03:00:03;;;;;;;2.83;2.40;;;;;;;22.69;100.00;97477.25;4985806;28;20670;-71
2021/07/11 03:02:30;;;;;;;2.40;2.20;;;;;;;22.66;100.00;97482.31;4987838;28;20246;-70
2021/07/11 03:04:57;;;;;;;2.43;2.27;;;;;;;22.79;100.00;97498.00;4984273;28;20202;-68
2021/07/11 03:07:23;;;;;;;2.57;2.37;;;;;;;22.61;100.00;97466.84;4976018;28;20230;-70
2021/07/11 03:09:50;;;;;;;2.83;2.57;;;;;;;22.80;100.00;97509.16;4976715;28;20237;-68
2021/07/11 03:12:17;;;;;;;2.37;2.17;;;;;;;22.48;100.00;97451.09;4984196;28;20643;-70
2021/07/11 03:14:49;;;;;;;2.23;2.07;;;;;;;22.81;100.00;97505.75;4975755;28;20222;-70
2021/07/11 03:17:18;;;;;;;3.80;2.10;;;;;;;22.56;100.00;97455.59;4978120;28;20270;-70
2021/07/11 03:19:45;;;;;;;2.77;2.20;;;;;;;22.81;100.00;97513.44;4955757;28;20199;-70
2021/07/11 03:22:12;;;;;;;2.20;2.10;;;;;;;22.40;100.00;97435.53;4977462;28;20678;-66
2021/07/11 03:24:38;;;;;;;2.40;2.23;;;;;;;22.58;100.00;97474.44;4984771;28;20202;-70
2021/07/11 03:27:05;;;;;;;2.20;2.10;;;;;;;22.76;100.00;97504.75;4971827;28;20226;-70
2021/07/11 03:29:52;;;;;;;2.50;2.30;;;;;;;22.06;100.00;97384.34;4983320;28;20255;-70
2021/07/11 03:32:20;;;;;;;2.10;2.00;;;;;;;22.66;100.00;97488.31;4977970;28;20726;-70
2021/07/11 03:34:47;;;;;;;2.40;2.27;;;;;;;22.81;100.00;97516.88;4976620;28;20234;-74
2021/07/11 03:37:13;;;;;;;2.10;2.00;;;;;;;22.78;100.00;97510.78;4977700;28;20306;-70
2021/07/11 03:39:46;;;;;;;2.50;2.30;;;;;;;22.65;100.00;97489.13;4988870;28;20676;-71
2021/07/11 03:42:13;;;;;;;2.53;2.03;;;;;;;22.64;100.00;97495.09;4965038;28;20227;-70
2021/07/11 03:44:40;;;;;;;5.10;2.37;;;;;;;22.54;100.00;97475.22;4961232;28;20237;-73
2021/07/11 03:47:10;;;;;;;3.20;2.40;;;;;;;22.67;100.00;97500.28;4966270;28;20229;-67
2021/07/11 03:49:37;;;;;;;3.00;2.10;;;;;;;22.82;100.00;97520.28;4973550;28;20253;-70
2021/07/11 03:52:05;;;;;;;2.50;2.30;;;;;;;22.78;100.00;97521.03;4976458;28;20653;-70
2021/07/11 03:54:35;;;;;;;6.53;2.27;;;;;;;22.72;100.00;97503.84;4981909;28;20285;-69
2021/07/11 03:57:02;;;;;;;2.23;2.13;;;;;;;22.77;100.00;97515.03;4985188;28;20230;-71
2021/07/11 03:59:30;;;;;;;2.80;2.20;;;;;;;22.74;100.00;97512.41;4992492;28;20278;-70
2021/07/11 04:01:57;;;;;;;1.93;1.83;;;;;;;22.82;100.00;97521.16;4991553;28;20281;-70
2021/07/11 04:04:23;;;;;;;2.07;1.97;;;;;;;22.45;100.00;97463.81;4990832;28;20205;-70
2021/07/11 04:06:50;;;;;;;2.30;2.10;;;;;;;22.82;100.00;97538.22;4984122;28;20684;-70
2021/07/11 04:09:18;;;;;;;2.10;2.00;;;;;;;22.71;100.00;97514.03;4976406;28;20309;-70
2021/07/11 04:11:45;;;;;;;2.50;2.30;;;;;;;22.66;100.00;97500.25;4986477;28;20205;-70
2021/07/11 04:14:16;;;;;;;2.10;2.00;;;;;;;22.47;100.00;97464.75;4987794;28;20243;-69
2021/07/11 04:16:45;;;;;;;2.30;2.10;;;;;;;22.83;100.00;97524.59;4987616;28;20298;-73
2021/07/11 04:19:11;;;;;;;2.30;2.10;;;;;;;22.69;100.00;97503.75;4977333;28;20195;-71
2021/07/11 04:21:38;;;;;;;2.00;1.90;;;;;;;22.82;100.00;97530.53;4978000;28;20277;-70
2021/07/11 04:24:04;;;;;;;2.30;2.10;;;;;;;22.20;100.00;97430.78;4959936;28;20210;-70
2021/07/11 04:26:33;;;;;;;2.20;2.10;;;;;;;22.79;100.00;97538.13;4956320;28;20249;-69
2021/07/11 04:28:59;;;;;;;2.40;2.20;;;;;;;22.67;100.00;97525.91;4988789;28;20249;-67
2021/07/11 04:31:26;;;;;;;2.20;2.10;;;;;;;22.73;100.00;97522.63;4975256;28;20245;-71
2021/07/11 04:33:53;;;;;;;2.03;1.93;;;;;;;22.82;100.00;97549.34;4976765;28;20217;-71
2021/07/11 04:36:19;;;;;;;2.43;2.23;;;;;;;22.64;100.00;97507.91;4973288;28;20206;-71
2021/07/11 04:38:46;;;;;;;2.20;2.00;;;;;;;22.61;100.00;97512.94;5007768;28;20458;-70
2021/07/11 04:41:13;;;;;;;2.37;2.17;;;;;;;22.82;100.00;97540.78;4986860;28;20230;-68
2021/07/11 04:43:40;;;;;;;2.10;2.00;;;;;;;22.83;100.00;97545.09;4984513;28;20322;-72
2021/07/11 04:46:07;;;;;;;2.17;1.93;;;;;;;22.79;100.00;97541.56;4989221;28;20237;-70
2021/07/11 04:48:33;;;;;;;2.60;2.40;;;;;;;22.82;100.00;97546.78;4970527;28;20269;-70
2021/07/11 04:51:00;;;;;;;2.37;2.17;;;;;;;22.83;100.00;97553.63;4989411;28;20579;-71
2021/07/11 04:53:30;;;;;;;2.30;2.10;;;;;;;22.84;100.00;97557.06;4963625;28;20222;-70
2021/07/11 04:55:57;;;;;;;2.07;1.97;;;;;;;22.63;100.00;97518.09;4974745;28;20202;-70
2021/07/11 04:58:23;;;;;;;2.20;2.00;;;;;;;22.80;100.00;97555.25;4986597;28;20206;-70
2021/07/11 05:00:50;;;;;;;2.23;2.03;;;;;;;22.07;100.00;97438.94;4985539;28;20198;-71
2021/07/11 05:03:16;;;;;;;2.30;2.10;;;;;;;22.83;100.00;97558.75;5007173;28;20218;-70
2021/07/11 05:05:43;;;;;;;2.37;2.17;;;;;;;22.75;100.00;97544.03;4984142;28;20237;-67
2021/07/11 05:08:10;;;;;;;2.23;1.90;;;;;;;22.84;100.00;97554.50;4975547;28;20209;-70
2021/07/11 05:10:36;;;;;;;2.30;2.10;;;;;;;22.69;100.00;97525.94;5000822;28;20288;-70
2021/07/11 05:13:03;;;;;;;2.23;2.03;;;;;;;22.63;100.00;97521.53;4986811;28;20249;-71
2021/07/11 05:15:30;;;;;;;2.07;1.97;;;;;;;22.85;100.00;97556.22;5005040;28;20198;-70
2021/07/11 05:17:56;;;;;;;2.23;2.03;;;;;;;22.82;100.00;97548.47;5003063;28;20838;-70
2021/07/11 05:20:23;;;;;;;2.00;1.90;;;;;;;22.80;100.00;97539.91;5003688;28;20195;-70
2021/07/11 05:22:50;;;;;;;2.03;1.93;;;;;;;22.84;100.00;97549.38;5001886;28;20571;-70
2021/07/11 05:25:16;;;;;;;2.00;1.90;;;;;;;22.77;100.00;97534.69;4985328;28;20284;-70
2021/07/11 05:27:43;;;;;;;2.00;1.90;;;;;;;22.66;100.00;97513.94;4974467;28;20202;-71
2021/07/11 05:30:10;;;;;;;2.40;2.20;;;;;;;22.84;100.00;97540.00;4985968;28;20284;-70
2021/07/11 05:32:37;;;;;;;2.20;2.00;;;;;;;22.42;100.00;97459.50;4984122;28;20218;-70
2021/07/11 05:35:04;;;;;;;3.13;1.90;;;;;;;22.49;100.00;97481.00;4981052;28;20256;-70
2021/07/11 05:37:30;;;;;;;2.30;2.00;;;;;;;22.73;100.00;97509.81;4985416;28;20250;-70
2021/07/11 05:39:58;;;;;;;2.20;2.00;;;;;;;22.85;100.00;97534.03;5005168;28;20226;-69
2021/07/11 05:42:25;;;;;;;2.07;1.90;;;;;;;22.60;100.00;97492.41;4993062;23;1135820;-62
2021/07/11 05:44:51;;;;;;;2.00;1.90;;;;;;;22.86;100.00;97546.00;4994960;28;20253;-65
2021/07/11 05:47:18;;;;;;;2.27;2.07;;;;;;;22.87;100.00;97552.00;5012039;28;20665;-66
2021/07/11 05:49:44;;;;;;;2.30;2.07;;;;;;;22.87;100.00;97552.88;5005558;28;20635;-66
2021/07/11 05:52:11;;;;;;;2.20;2.00;;;;;;;22.87;100.00;97549.44;5011663;28;20230;-64
2021/07/11 05:54:37;;;;;;;2.37;2.17;;;;;;;22.87;100.00;97546.88;5002728;28;20254;-65
2021/07/11 05:57:04;;;;;;;1.87;1.77;;;;;;;22.88;100.00;97546.06;5004458;28;20730;-66
2021/07/11 05:59:35;;;;;;;2.83;2.20;;;;;;;22.87;100.00;97545.19;5000815;28;20278;-66
2021/07/11 06:02:02;;;;;;;2.13;1.93;;;;;;;22.88;100.00;97546.94;5002881;28;20198;-66
2021/07/11 06:04:28;;;;;;;1.97;1.87;;;;;;;22.88;100.00;97544.38;5001865;28;20254;-64
2021/07/11 06:06:55;;;;;;;1.83;1.73;;;;;;;22.83;100.00;97533.13;5000714;28;20250;-65
2021/07/11 06:09:21;;;;;;;2.00;1.90;;;;;;;22.89;100.00;97555.50;5001800;28;20365;-66
2021/07/11 06:11:48;;;;;;;2.20;2.00;;;;;;;22.88;100.00;97552.06;5001492;28;20230;-66
2021/07/11 06:14:15;;;;;;;1.80;1.70;;;;;;;22.88;100.00;97557.19;5001316;28;20307;-63
2021/07/11 06:16:41;;;;;;;2.10;1.90;;;;;;;22.89;100.00;97555.50;5003145;28;20241;-65
2021/07/11 06:19:09;;;;;;;1.93;1.80;;;;;;;22.88;100.00;97554.63;4999844;28;20222;-66
2021/07/11 06:21:35;;;;;;;2.03;1.93;;;;;;;22.87;100.00;97555.44;4991942;28;20227;-66
2021/07/11 06:24:02;;;;;;;1.90;1.70;;;;;;;22.89;100.00;97552.94;5004634;28;20249;-64
2021/07/11 06:26:28;;;;;;;1.90;1.80;;;;;;;22.89;100.00;97555.50;4983906;28;20580;-66
2021/07/11 06:28:55;;;;;;;1.93;1.83;;;;;;;22.89;100.00;97558.06;4999983;28;20687;-66
2021/07/11 06:31:21;;;;;;;2.60;2.10;;;;;;;22.89;100.00;97565.75;5001205;28;20234;-66
2021/07/11 06:33:48;;;;;;;1.90;1.80;;;;;;;22.89;100.00;97564.03;4999394;28;20215;-66
2021/07/11 06:36:15;;;;;;;2.10;1.90;;;;;;;22.35;100.00;97480.66;5009241;28;20316;-66
2021/07/11 06:38:41;;;;;;;1.80;1.70;;;;;;;22.88;100.00;97575.13;5005257;28;20621;-66
2021/07/11 06:41:08;;;;;;;2.50;2.20;;;;;;;22.88;100.00;97580.25;5006601;28;20616;-63
2021/07/11 06:43:35;;;;;;;2.37;1.93;;;;;;;22.89;100.00;97573.44;4998934;28;20257;-66
2021/07/11 06:46:01;;;;;;;3.00;1.90;;;;;;;22.88;100.00;97580.25;4996231;28;20226;-64
2021/07/11 06:48:28;;;;;;;2.13;1.93;;;;;;;22.89;100.00;97581.13;5003029;28;20199;-66
2021/07/11 06:50:55;;;;;;;1.90;1.70;;;;;;;22.89;100.00;97583.69;4998154;28;20258;-66
2021/07/11 06:53:22;;;;;;;1.80;1.70;;;;;;;22.80;100.00;97571.47;5002655;28;20679;-66
2021/07/11 06:55:48;;;;;;;1.83;1.73;;;;;;;22.89;100.00;97583.69;5000740;28;20596;-66
2021/07/11 06:58:15;;;;;;;1.87;1.77;;;;;;;22.40;100.00;97503.81;5005641;28;20241;-63
2021/07/11 07:00:42;;;;;;;1.80;1.67;;;;;;;22.89;100.00;97589.66;4999904;28;20226;-65
2021/07/11 07:03:08;;;;;;;1.70;1.60;;;;;;;22.89;100.00;97589.66;5001589;28;20246;-66
2021/07/11 07:05:35;;;;;;;1.60;1.50;;;;;;;21.94;100.00;97425.00;5001613;28;20230;-66
2021/07/11 07:08:01;;;;;;;2.50;2.10;;;;;;;22.89;100.00;97588.81;4999653;28;20237;-66
2021/07/11 07:10:28;;;;;;;1.70;1.60;;;;;;;22.89;100.00;97583.69;4998272;28;20751;-64
2021/07/11 07:12:54;;;;;;;2.10;1.90;;;;;;;22.89;100.00;97586.25;5000559;28;20690;-66
2021/07/11 07:15:21;;;;;;;1.80;1.70;;;;;;;22.82;100.00;97577.53;5004438;28;20261;-65
2021/07/11 07:17:48;;;;;;;2.00;1.90;;;;;;;22.89;100.00;97586.25;4981110;28;20644;-64
2021/07/11 07:20:14;;;;;;;1.97;1.87;;;;;;;22.89;100.00;97586.25;4975541;28;20235;-66
2021/07/11 07:22:41;;;;;;;1.93;1.83;;;;;;;22.83;100.00;97573.28;4973134;28;20245;-66
2021/07/11 07:25:10;;;;;;;2.13;2.03;;;;;;;22.89;100.00;97581.97;4973249;28;20211;-66
2021/07/11 07:27:37;;;;;;;2.73;1.80;;;;;;;22.89;100.00;97581.97;4996143;28;20289;-66
2021/07/11 07:30:05;;;;;;;2.17;1.80;;;;;;;22.89;100.00;97584.53;4979190;28;20265;-66
2021/07/11 07:32:31;;;;;;;2.00;1.90;;;;;;;22.89;100.00;97588.81;4996593;28;20251;-66
2021/07/11 07:34:58;;;;;;;1.90;1.80;;;;;;;22.89;100.00;97587.09;5002689;28;20281;-66
2021/07/11 07:37:25;;;;;;;1.70;1.60;;;;;;;22.88;100.00;97590.50;5003055;28;20598;-66
2021/07/11 07:39:51;;;;;;;1.90;1.80;;;;;;;22.89;100.00;97596.50;4988254;28;20937;-66
2021/07/11 07:42:18;;;;;;;1.77;1.67;;;;;;;22.89;100.00;97596.50;5000298;28;20291;-66
2021/07/11 07:44:44;;;;;;;2.23;1.50;;;;;;;22.89;100.00;97604.19;4999238;28;20230;-66
2021/07/11 07:47:11;;;;;;;1.70;1.60;;;;;;;22.89;100.00;97606.75;4999899;28;20245;-66
2021/07/11 07:49:38;;;;;;;1.67;1.57;;;;;;;22.88;100.00;97611.00;4983583;28;20214;-65
2021/07/11 07:52:05;;;;;;;1.73;1.63;;;;;;;22.89;100.00;97611.88;4978623;28;20204;-63
2021/07/11 07:54:31;;;;;;;1.87;1.77;;;;;;;22.68;100.00;97585.69;4998279;28;20670;-66
2021/07/11 07:56:58;;;;;;;3.37;1.80;;;;;;;22.88;100.00;97618.69;4979211;28;20607;-66
2021/07/11 07:59:24;;;;;;;2.30;1.90;;;;;;;22.89;100.00;97622.97;4997671;28;20231;-66
2021/07/11 08:01:51;;;;;;;1.73;1.60;;;;;;;22.89;100.00;97624.69;4990149;28;20258;-66
2021/07/11 08:04:20;;;;;;;2.33;1.70;;;;;;;22.88;100.00;97626.38;4996614;28;20218;-63
2021/07/11 08:06:47;;;;;;;1.70;1.60;;;;;;;22.89;100.00;97637.50;4992711;28;20230;-66
2021/07/11 08:09:16;;;;;;;1.80;1.70;;;;;;;22.88;100.00;97634.06;4997623;28;20222;-66
2021/07/11 08:11:44;;;;;;;2.40;1.90;;;;;;;22.89;100.00;97638.34;4997943;28;20205;-66
2021/07/11 08:14:11;;;;;;;1.93;1.83;;;;;;;22.89;100.00;97640.06;5001417;28;20660;-66
2021/07/11 08:16:37;;;;;;;1.73;1.63;;;;;;;22.89;100.00;97640.06;4994530;28;20229;-66
2021/07/11 08:19:05;;;;;;;2.13;1.93;;;;;;;22.84;100.00;97636.50;4993899;28;20195;-66
2021/07/11 08:21:31;;;;;;;2.17;1.57;;;;;;;22.89;100.00;97645.19;4979957;28;20230;-64
2021/07/11 08:23:58;;;;;;;1.70;1.60;;;;;;;21.81;100.00;97470.66;4996217;28;20691;-63
2021/07/11 08:26:24;;;;;;;1.63;1.53;;;;;;;22.88;100.00;97641.75;4998784;28;20620;-66
2021/07/11 08:28:51;;;;;;;1.80;1.70;;;;;;;22.88;100.00;97649.44;4997236;28;20250;-63
2021/07/11 08:31:18;;;;;;;1.80;1.67;;;;;;;22.89;100.00;97638.34;4998536;28;20246;-65
2021/07/11 08:33:44;;;;;;;1.80;1.70;;;;;;;22.89;100.00;97648.59;4998655;28;20244;-65
2021/07/11 08:36:11;;;;;;;2.33;1.73;;;;;;;21.98;100.00;97477.09;5004048;28;20285;-65
2021/07/11 08:38:38;;;;;;;1.87;1.70;;;;;;;22.88;100.00;97639.19;5003406;28;20285;-65
2021/07/11 08:41:04;;;;;;;1.60;1.50;;;;;;;22.89;100.00;97637.50;4998189;28;20190;-66
2021/07/11 08:43:31;;;;;;;1.80;1.70;;;;;;;22.90;100.00;97641.78;4994642;28;20268;-66
2021/07/11 08:45:57;;;;;;;1.80;1.70;;;;;;;22.89;100.00;97638.34;4992864;28;20219;-66
2021/07/11 08:48:24;;;;;;;3.37;1.90;;;;;;;22.89;100.00;97638.34;4996266;28;20207;-65
2021/07/11 08:50:51;;;;;;;2.30;1.87;;;;;;;22.88;100.00;97641.75;4996479;28;20226;-66
2021/07/11 08:53:17;;;;;;;2.00;1.90;;;;;;;22.89;100.00;97646.03;5000828;28;20218;-63
2021/07/11 08:55:44;;;;;;;1.77;1.67;;;;;;;22.57;100.00;97590.56;4966163;28;20291;-66
2021/07/11 08:58:13;;;;;;;1.97;1.77;;;;;;;22.90;100.00;97646.91;4999152;28;20284;-65
2021/07/11 09:00:39;;;;;;;2.00;1.80;;;;;;;22.89;100.00;97645.19;4977784;28;20211;-63
2021/07/11 09:03:06;;;;;;;1.80;1.70;;;;;;;22.90;100.00;97659.72;4995559;28;20217;-64
2021/07/11 09:05:39;;;;;;;1.93;1.70;;;;;;;22.88;100.00;97654.56;4974627;28;20290;-63
2021/07/11 09:08:08;;;;;;;2.70;2.07;;;;;;;22.87;100.00;97664.78;4959267;28;20640;-65
2021/07/11 09:10:58;;;;;;;2.93;2.00;;;;;;;22.85;100.00;97663.84;4980661;28;20310;-66
2021/07/11 09:13:26;;;;;;;2.10;1.90;;;;;;;22.83;100.00;97662.97;4977395;28;20235;-65
2021/07/11 09:15:56;;;;;;;2.00;1.80;;;;;;;22.81;100.00;97662.03;4960966;28;20294;-64
2021/07/11 09:18:23;;;;;;;2.10;1.90;;;;;;;22.78;100.00;97662.84;4978951;28;20207;-65
2021/07/11 09:20:51;;;;;;;3.50;2.13;;;;;;;22.77;100.00;97655.13;4978346;28;20285;-64
2021/07/11 09:23:17;;;;;;;2.13;1.70;;;;;;;22.75;100.00;97659.31;4974749;28;20932;-65
2021/07/11 09:25:57;;;;;;;3.67;1.70;;;;;;;22.73;100.00;97666.97;4977583;28;20295;-65
2021/07/11 09:28:24;;;;;;;2.27;1.80;;;;;;;22.74;100.00;97667.84;4977410;28;20217;-65
2021/07/11 09:31:13;;;;;;;1.93;1.70;;;;;;;22.74;100.00;97661.00;4979373;28;20225;-64
2021/07/11 09:33:44;;;;;;;3.37;2.10;;;;;;;22.75;100.00;97660.22;4963594;28;20306;-63
2021/07/11 09:36:20;;;;;;;2.23;2.00;;;;;;;22.77;100.00;97665.38;4979377;28;20431;-64
2021/07/11 09:38:48;;;;;;;2.33;2.10;;;;;;;22.77;100.00;97668.78;4979121;28;20260;-63
2021/07/11 09:41:19;;;;;;;1.70;1.60;;;;;;;22.78;100.00;97672.22;4945702;28;20564;-65
2021/07/11 09:43:47;;;;;;;2.07;1.80;;;;;;;22.79;100.00;97668.81;4976938;28;20734;-65
2021/07/11 09:46:14;;;;;;;1.70;1.60;;;;;;;22.74;100.00;97667.84;4977341;28;20314;-63
2021/07/11 09:48:40;;;;;;;2.10;1.83;;;;;;;22.79;100.00;97671.38;4961463;28;20206;-64
2021/07/11 09:51:13;;;;;;;1.70;1.60;;;;;;;22.80;100.00;97670.56;4945858;28;20301;-65
2021/07/11 09:53:39;;;;;;;1.70;1.60;;;;;;;22.72;100.00;97680.63;4979847;28;20250;-65
2021/07/11 09:56:06;;;;;;;1.70;1.60;;;;;;;22.80;100.00;97670.56;4962777;28;20227;-65
2021/07/11 09:58:33;;;;;;;3.00;1.80;;;;;;;22.49;100.00;97614.16;4980015;28;20206;-66
2021/07/11 10:00:59;;;;;;;3.43;2.00;;;;;;;22.82;100.00;97666.34;4977750;28;23425;-66
2021/07/11 10:03:26;;;;;;;1.80;1.70;;;;;;;22.83;100.00;97668.09;4949576;28;20225;-64
2021/07/11 10:05:53;;;;;;;2.10;1.90;;;;;;;22.81;100.00;97659.50;4960128;28;20600;-64
2021/07/11 10:08:19;;;;;;;2.17;1.90;;;;;;;22.81;100.00;97662.03;4960759;28;20211;-64
2021/07/11 10:10:46;;;;;;;2.57;1.90;;;;;;;22.20;100.00;97553.66;4960859;28;20314;-64
2021/07/11 10:13:13;;;;;;;1.90;1.57;;;;;;;22.81;100.00;97668.06;4978510;28;20600;-66
2021/07/11 10:15:39;;;;;;;2.00;1.90;;;;;;;22.81;100.00;97670.63;4976045;28;20604;-64
2021/07/11 10:18:13;;;;;;;2.20;1.97;;;;;;;22.82;100.00;97668.91;4977523;28;20203;-65
2021/07/11 10:20:49;;;;;;;1.70;1.60;;;;;;;22.82;100.00;97661.22;4963435;28;20209;-63
2021/07/11 10:23:29;;;;;;;1.90;1.80;;;;;;;22.83;100.00;97668.09;4985714;28;20234;-66
2021/07/11 10:26:05;;;;;;;1.77;1.67;;;;;;;22.83;100.00;97668.09;4984154;28;20676;-66
2021/07/11 10:28:36;;;;;;;1.90;1.80;;;;;;;22.82;100.00;97666.34;4980807;28;20249;-65
2021/07/11 10:31:04;;;;;;;1.60;1.50;;;;;;;22.82;100.00;97671.47;4983302;28;20250;-65
2021/07/11 10:33:41;;;;;;;1.70;1.60;;;;;;;22.80;100.00;97668.00;4981903;28;20234;-63
2021/07/11 10:36:07;;;;;;;2.57;1.83;;;;;;;22.42;100.00;97604.59;4966728;28;20297;-65
2021/07/11 10:38:39;;;;;;;1.90;1.80;;;;;;;22.76;100.00;97679.88;4983154;28;20235;-66
2021/07/11 10:41:19;;;;;;;1.90;1.80;;;;;;;22.74;100.00;97672.97;4955348;28;20587;-65
2021/07/11 10:44:02;;;;;;;2.20;1.83;;;;;;;22.72;100.00;97674.63;4984666;28;20235;-65
2021/07/11 10:46:35;;;;;;;2.43;1.63;;;;;;;22.71;100.00;97671.19;4984302;28;20258;-65
2021/07/11 10:49:12;;;;;;;4.27;1.73;;;;;;;22.70;100.00;97677.13;4964225;28;20563;-66
2021/07/11 10:51:46;;;;;;;1.80;1.70;;;;;;;22.68;100.00;97668.53;4981953;28;20695;-66
2021/07/11 10:54:26;;;;;;;5.10;1.87;;;;;;;22.43;100.00;97622.56;4981955;28;20320;-66
2021/07/11 10:57:10;;;;;;;1.80;1.70;;;;;;;22.67;100.00;97664.25;4980392;28;20742;-65
2021/07/11 10:59:37;;;;;;;2.33;1.73;;;;;;;22.70;100.00;97661.75;4981824;28;20285;-66
2021/07/11 11:02:18;;;;;;;1.70;1.60;;;;;;;22.72;100.00;97661.81;4965117;28;20214;-66
2021/07/11 11:04:46;;;;;;;1.83;1.73;;;;;;;22.72;100.00;97661.81;4982114;28;20671;-63
2021/07/11 11:07:14;;;;;;;1.97;1.60;;;;;;;22.72;100.00;97661.81;4982641;28;20696;-65
2021/07/11 11:09:44;;;;;;;1.60;1.50;;;;;;;22.74;100.00;97665.28;4981962;28;20203;-63
2021/07/11 11:12:27;;;;;;;1.80;1.70;;;;;;;22.69;100.00;97651.47;4980578;28;20269;-63
2021/07/11 11:14:55;;;;;;;1.93;1.70;;;;;;;22.75;100.00;97669.56;4962136;28;20205;-63
2021/07/11 11:17:42;;;;;;;1.87;1.70;;;;;;;21.71;100.00;97479.75;4965209;28;20203;-67
2021/07/11 11:20:18;;;;;;;1.73;1.63;;;;;;;22.75;100.00;97662.75;4963980;28;20258;-66
2021/07/11 11:22:53;;;;;;;1.70;1.60;;;;;;;22.76;100.00;97658.50;4981412;28;20728;-66
2021/07/11 11:25:20;;;;;;;1.77;1.67;;;;;;;22.76;100.00;97653.38;4982269;28;20644;-66
2021/07/11 11:27:51;;;;;;;1.60;1.50;;;;;;;22.76;100.00;97654.25;4981843;28;20652;-66
2021/07/11 11:30:30;;;;;;;1.90;1.73;;;;;;;22.71;100.00;97643.00;4965538;28;20669;-66